CDT,Max TemperatureF,Mean TemperatureF,Min TemperatureF,Max Dew PointF,MeanDew PointF,Min DewpointF,Max Humidity, Mean Humidity, Min Humidity, Max Sea Level PressureIn, Mean Sea Level PressureIn, Min Sea Level PressureIn, Max VisibilityMiles, Mean VisibilityMiles, Min VisibilityMiles, Max Wind SpeedMPH, Mean Wind SpeedMPH, Max Gust SpeedMPH,PrecipitationIn, CloudCover, Events, WindDirDegrees
2011-10-1,69,56,42,43,36,30,76,50,23,30.33,30.25,30.20,10,10,4,12,5,,0.00,0,,127
2011-10-2,77,62,46,43,41,37,87,54,26,30.26,30.20,30.13,10,10,5,10,7,,0.00,0,,148
2011-10-3,80,66,51,45,41,37,67,47,21,30.20,30.16,30.11,10,10,10,16,8,24,0.00,0,,139
2011-10-4,89,74,60,50,45,41,59,40,20,30.14,30.10,30.03,10,10,10,14,9,20,0.00,0,,152
2011-10-5,82,68,55,46,44,37,72,43,20,30.10,30.05,29.99,10,10,10,18,10,26,0.00,0,,147
2011-10-6,80,70,59,50,45,43,59,44,28,30.02,29.96,29.87,10,10,10,22,12,32,0.00,0,,145
2011-10-7,82,73,64,59,56,48,64,52,44,29.99,29.94,29.89,10,10,10,26,17,37,0.00,5,,159
2011-10-8,77,70,62,63,56,52,88,65,47,30.11,30.03,29.98,10,10,7,25,12,31,0.02,5,Rain,159
2011-10-9,80,70,59,61,54,45,94,63,30,30.15,30.09,30.02,10,10,10,16,6,28,0.00,4,,141
2011-10-10,71,64,55,59,55,50,100,79,46,30.08,30.01,29.94,10,10,7,10,3,,0.03,5,Rain,174
2011-10-11,77,64,50,59,52,46,100,76,36,29.95,29.87,29.76,10,8,0,18,5,23,0.01,3,Fog-Thunderstorm,149
2011-10-12,68,60,53,59,54,46,100,79,60,29.79,29.73,29.70,10,9,3,14,5,22,0.04,5,Rain-Thunderstorm,263
2011-10-13,71,58,46,46,39,32,87,54,23,29.86,29.81,29.77,10,10,10,22,10,29,0.00,0,,297
2011-10-14,62,53,44,37,33,28,66,46,30,30.00,29.94,29.85,10,10,10,22,10,29,0.00,3,,296
2011-10-15,71,55,39,39,32,28,75,48,23,30.07,30.00,29.81,10,10,10,20,6,25,0.00,0,,220
2011-10-16,66,57,48,45,38,30,72,53,31,30.09,29.96,29.71,10,10,10,16,9,24,0.00,0,,320
2011-10-17,48,45,42,43,38,30,93,76,57,30.06,30.03,30.00,10,10,5,12,2,,0.13,6,Rain,319
2011-10-18,53,46,39,37,32,21,81,60,33,30.09,30.04,29.98,10,10,10,21,11,29,0.00,3,,319
2011-10-19,46,37,28,27,26,23,86,62,40,30.11,30.07,30.05,10,10,10,17,9,30,0.00,0,,329
2011-10-20,53,42,30,32,30,27,93,69,41,30.08,30.05,30.01,10,10,10,13,5,17,0.00,1,,306
2011-10-21,69,51,33,36,32,28,87,54,25,30.11,30.07,30.03,10,10,4,12,2,17,0.00,0,,213
2011-10-22,60,51,42,50,42,36,88,67,48,30.13,30.08,30.02,10,10,10,6,2,,0.00,3,Rain,27
2011-10-23,78,60,41,46,42,36,100,65,21,30.02,29.95,29.87,10,8,0,16,3,20,0.00,0,Fog,258
2011-10-24,77,60,42,41,36,36,76,45,22,30.11,30.01,29.83,10,10,10,16,3,23,0.00,0,,157
2011-10-25,77,65,53,52,44,37,60,48,31,29.95,29.76,29.69,10,10,10,23,15,29,0.00,0,,218
2011-10-26,51,46,42,41,37,34,76,67,58,30.11,30.07,30.01,10,10,10,15,10,23,0.00,5,,338
2011-10-27,55,44,32,34,29,21,100,61,28,30.17,30.13,30.09,10,10,10,10,4,18,0.00,3,,296
2011-10-28,57,45,33,32,23,14,70,45,20,30.20,30.16,30.13,10,10,10,21,7,28,0.00,0,,289
2011-10-29,60,46,32,28,25,18,75,42,29,30.15,29.99,29.83,10,10,10,17,6,23,0.00,0,,156
2011-10-30,59,52,44,36,30,19,66,43,22,30.04,29.97,29.84,10,10,10,24,14,33,0.00,2,,295
2011-10-31,64,48,32,32,26,23,75,47,23,30.09,30.02,29.91,10,10,10,14,5,20,0.00,0,,160